This is the latest recevied weather packets stored in our database for station/object N0ZO-13. If no packets are shown the sender has not sent any weather packets the latest 10 day(s).
| Time | Temp. | Humidity | Pressure | Rain* | Wind** | Luminosity | Snow |
|---|---|---|---|---|---|---|---|
| 1777709179 | 13.33° C | 93% | 1007.8 hPa | 0 mm | - | 0 W/m² | - |
| 1777708588 | 13.33° C | 93% | 1007.8 hPa | 0 mm | - | 0 W/m² | - |
| 1777701388 | 13.89° C | 92% | 1008.2 hPa | 0 mm | - | 0 W/m² | - |
| 1777697801 | 13.89° C | 91% | 1008.1 hPa | 0 mm | - | 0 W/m² | - |
| 1777692980 | 13.89° C | 91% | 1008 hPa | 0 mm | - | 0 W/m² | - |
| 1777692389 | 14.44° C | 92% | 1008.2 hPa | 0 mm | - | 0 W/m² | - |
| 1777688177 | 15° C | 91% | 1009.2 hPa | 0.76 mm | - | 0 W/m² | - |
| 1777684630 | 15.56° C | 89% | 1008.8 hPa | 0 mm | - | 0 W/m² | - |
| 1777683377 | 15.56° C | 89% | 1008.6 hPa | 0 mm | - | 0 W/m² | - |
| 1777681576 | 16.11° C | 88% | 1008.1 hPa | 0 mm | - | 0 W/m² | - |
| 1777680986 | 16.11° C | 87% | 1008.2 hPa | 0 mm | - | 0 W/m² | - |
| 1777679186 | 16.67° C | 84% | 1007.8 hPa | 0 mm | - | 0 W/m² | - |
| 1777677386 | 16.67° C | 80% | 1007.6 hPa | 0 mm | - | 0 W/m² | - |
| 1777673179 | 17.78° C | 76% | 1007.4 hPa | 0 mm | - | 0 W/m² | - |
| 1777667190 | 18.89° C | 64% | 1008.4 hPa | 0 mm | - | 10 W/m² | - |
| 1777666585 | 19.44° C | 64% | 1008.4 hPa | 0 mm | - | 10 W/m² | - |
| 1777664179 | 18.89° C | 69% | 1009.4 hPa | 0 mm | - | 10 W/m² | - |
| 1777663589 | 18.89° C | 68% | 1009.2 hPa | 0 mm | - | 10 W/m² | - |
| 1777659385 | 18.89° C | 70% | 1009.4 hPa | 0 mm | - | 54 W/m² | - |
| 1777650380 | 16.11° C | 75% | 1009.8 hPa | 0 mm | - | 10 W/m² | - |
| 1777649183 | 15.56° C | 78% | 1009.9 hPa | 0 mm | - | 10 W/m² | - |
| 1777637782 | 13.33° C | 89% | 1008.6 hPa | 0 mm | - | 0 W/m² | - |
| 1777631788 | 13.33° C | 88% | 1008 hPa | 0 mm | - | 0 W/m² | - |
| 1777631218 | 13.33° C | 88% | 1007.9 hPa | 0 mm | - | 0 W/m² | - |
| 1777630587 | 13.33° C | 89% | 1007.7 hPa | 0 mm | - | 0 W/m² | - |
* Rain latest hour (hover to see other rain measurements)
** Current wind speed in m/s (hover to see current wind gust speed)